Time;durP1;ratioP1;P1;durP2;ratioP2;P2;SDS_P1;SDS_P2;PMS_P1;PMS_P2;Temp;Humidity;BMP_temperature;BMP_pressure;BME280_temperature;BME280_humidity;BME280_pressure;Samples;Min_cycle;Max_cycle;Signal;HPM_P1;HPM_P2
2023/10/13 00:00:36;;;;;;;10.57;3.90;;;13.90;99.90;;;;;;4991118;28;20038;-58
2023/10/13 00:03:05;;;;;;;7.97;3.47;;;13.90;99.90;;;;;;4990690;28;20041;-58
2023/10/13 00:05:33;;;;;;;7.13;3.95;;;13.90;99.90;;;;;;4991929;28;20536;-58
2023/10/13 00:08:02;;;;;;;13.18;3.65;;;13.80;99.90;;;;;;4991926;28;20055;-57
2023/10/13 00:10:29;;;;;;;9.27;3.70;;;13.70;99.90;;;;;;4987520;28;20435;-57
2023/10/13 00:15:57;;;;;;;7.97;3.42;;;13.80;99.90;;;;;;4975031;28;20113;-56
2023/10/13 00:18:35;;;;;;;8.50;3.40;;;13.70;99.90;;;;;;4985845;28;20054;-55
2023/10/13 00:21:19;;;;;;;9.87;3.53;;;13.70;99.90;;;;;;4991220;28;20046;-57
2023/10/13 00:23:52;;;;;;;7.93;3.80;;;13.70;99.90;;;;;;4991837;28;20039;-54
2023/10/13 00:26:27;;;;;;;12.32;4.30;;;13.60;99.90;;;;;;4992032;28;20065;-57
2023/10/13 00:29:16;;;;;;;13.30;3.97;;;13.50;99.90;;;;;;4990521;28;20122;-56
2023/10/13 00:31:44;;;;;;;7.93;3.50;;;13.50;99.90;;;;;;4990150;28;20054;-57
2023/10/13 00:34:19;;;;;;;8.48;3.28;;;13.40;99.90;;;;;;4991827;28;20582;-58
2023/10/13 00:37:12;;;;;;;8.02;3.60;;;13.40;99.90;;;;;;4989113;28;20046;-57
2023/10/13 00:39:36;;;;;;;12.13;3.88;;;13.30;99.90;;;;;;4991416;28;20076;-55
2023/10/13 00:42:08;;;;;;;6.82;3.05;;;13.20;99.90;;;;;;4986116;28;20435;-55
2023/10/13 00:44:41;;;;;;;9.90;3.80;;;13.20;99.90;;;;;;4986453;28;20065;-55
2023/10/13 00:47:09;;;;;;;9.40;4.35;;;13.10;99.90;;;;;;4985465;28;20058;-54
2023/10/13 00:49:39;;;;;;;9.80;3.80;;;13.10;99.90;;;;;;4991096;28;20053;-54
2023/10/13 00:52:09;;;;;;;7.63;3.53;;;13.10;99.90;;;;;;4995320;28;20503;-57
2023/10/13 00:54:37;;;;;;;9.85;4.30;;;13.10;99.90;;;;;;4984789;28;20035;-57
2023/10/13 00:57:11;;;;;;;11.25;4.03;;;13.00;99.90;;;;;;4995321;28;20038;-58
2023/10/13 00:59:41;;;;;;;8.38;4.10;;;12.90;99.90;;;;;;4995097;28;20550;-58
2023/10/13 01:04:54;;;;;;;8.43;3.90;;;12.90;99.90;;;;;;5009685;28;20058;-56
2023/10/13 01:07:22;;;;;;;;;;;12.90;99.90;;;;;;4995455;28;20130;-57
2023/10/13 01:09:50;;;;;;;9.55;4.13;;;12.90;99.90;;;;;;4993739;28;20359;-57
2023/10/13 01:12:17;;;;;;;13.30;5.82;;;12.90;99.90;;;;;;4992561;28;20499;-58
2023/10/13 01:14:44;;;;;;;11.18;5.85;;;12.90;99.90;;;;;;4993497;28;20479;-58
2023/10/13 01:17:10;;;;;;;12.52;5.25;;;13.00;99.90;;;;;;4993657;28;20053;-54
2023/10/13 01:19:49;;;;;;;11.35;4.82;;;13.10;99.90;;;;;;4990619;28;20081;-57
2023/10/13 01:22:15;;;;;;;6.93;3.72;;;13.10;99.90;;;;;;4993468;28;20126;-58
2023/10/13 01:24:43;;;;;;;11.02;4.15;;;13.00;99.90;;;;;;4985879;28;20085;-56
2023/10/13 01:27:20;;;;;;;10.48;3.78;;;12.80;99.90;;;;;;4993489;28;20050;-58
2023/10/13 01:29:49;;;;;;;13.80;3.65;;;12.60;99.90;;;;;;4994735;28;20515;-58
2023/10/13 01:32:18;;;;;;;7.78;4.15;;;12.50;99.90;;;;;;4993299;28;20522;-58
2023/10/13 01:34:47;;;;;;;11.50;3.53;;;12.40;99.90;;;;;;4983480;28;20551;-55
2023/10/13 01:37:15;;;;;;;18.05;4.40;;;12.40;99.90;;;;;;4988896;28;20141;-58
2023/10/13 01:39:47;;;;;;;12.20;4.25;;;12.50;99.90;;;;;;4992299;28;20038;-58
2023/10/13 01:42:21;;;;;;;14.20;4.43;;;12.40;99.90;;;;;;4992408;28;20483;-57
2023/10/13 01:44:49;;;;;;;7.80;3.88;;;12.50;99.90;;;;;;4977486;28;20496;-59
2023/10/13 01:47:19;;;;;;;16.45;4.32;;;12.50;99.90;;;;;;4973811;28;20042;-58
2023/10/13 01:49:50;;;;;;;7.53;3.35;;;12.50;99.90;;;;;;4990664;28;20053;-59
2023/10/13 01:52:17;;;;;;;7.30;3.25;;;12.50;99.90;;;;;;4993964;28;20039;-59
2023/10/13 01:54:46;;;;;;;;;;;12.60;99.90;;;;;;4986416;28;20384;-57
2023/10/13 01:57:23;;;;;;;12.43;4.00;;;12.50;99.90;;;;;;4994425;28;19921;-59
2023/10/13 01:59:50;;;;;;;8.85;3.58;;;12.50;99.90;;;;;;4992263;28;20129;-59
2023/10/13 02:02:28;;;;;;;11.10;4.22;;;12.50;99.90;;;;;;4991333;28;20050;-57
2023/10/13 02:04:58;;;;;;;8.48;3.90;;;12.40;99.90;;;;;;5001600;28;20058;-56
2023/10/13 02:07:26;;;;;;;8.02;4.00;;;12.50;99.90;;;;;;4994059;28;20048;-59
2023/10/13 02:09:54;;;;;;;8.98;4.10;;;12.40;99.90;;;;;;4992562;28;20046;-59
2023/10/13 02:12:27;;;;;;;10.93;3.70;;;12.40;99.90;;;;;;4987568;28;20102;-58
2023/10/13 02:14:54;;;;;;;7.18;3.70;;;12.40;99.90;;;;;;4992022;28;20038;-58
2023/10/13 02:17:23;;;;;;;9.40;4.25;;;12.20;99.90;;;;;;5008666;28;20042;-58
2023/10/13 02:19:54;;;;;;;8.25;3.90;;;12.10;99.90;;;;;;4992139;28;20090;-59
2023/10/13 02:22:29;;;;;;;8.45;3.63;;;12.00;99.90;;;;;;4986004;28;20074;-58
2023/10/13 02:25:01;;;;;;;10.60;4.32;;;11.90;99.90;;;;;;4980684;28;20053;-58
2023/10/13 02:27:28;;;;;;;10.30;3.53;;;11.80;99.90;;;;;;4983011;28;20612;-59
2023/10/13 02:29:58;;;;;;;9.43;3.78;;;11.70;99.90;;;;;;4990911;28;20042;-59
2023/10/13 02:32:26;;;;;;;7.65;4.00;;;11.60;99.90;;;;;;4991140;28;20151;-58
2023/10/13 02:34:54;;;;;;;9.48;3.50;;;11.60;99.90;;;;;;4991222;28;20041;-58
2023/10/13 02:37:20;;;;;;;8.80;4.05;;;11.70;99.90;;;;;;4992847;28;20491;-59
2023/10/13 02:39:48;;;;;;;6.95;3.22;;;11.70;99.90;;;;;;4988832;28;20042;-57
2023/10/13 02:42:23;;;;;;;16.67;4.05;;;11.60;99.90;;;;;;4991897;28;20137;-58
2023/10/13 02:44:50;;;;;;;15.07;3.97;;;11.60;99.90;;;;;;4992266;28;20044;-59
2023/10/13 02:47:19;;;;;;;11.05;4.45;;;11.70;99.90;;;;;;4985354;28;20049;-58
2023/10/13 02:49:47;;;;;;;8.05;4.22;;;11.60;99.90;;;;;;4990604;28;20038;-56
2023/10/13 02:52:15;;;;;;;8.45;3.47;;;11.60;99.90;;;;;;4991247;28;20059;-59
2023/10/13 02:54:50;;;;;;;;;;;11.50;99.90;;;;;;4992022;28;20061;-57
2023/10/13 02:57:18;;;;;;;9.00;3.75;;;11.50;99.90;;;;;;5001097;28;19963;-57
2023/10/13 02:59:55;;;;;;;7.78;3.65;;;11.50;99.90;;;;;;4992486;28;20065;-59
2023/10/13 03:02:25;;;;;;;9.40;3.40;;;11.40;99.90;;;;;;4991113;28;20046;-58
2023/10/13 03:05:10;;;;;;;15.80;4.80;;;11.40;99.90;;;;;;4991780;28;20034;-58
2023/10/13 03:07:37;;;;;;;10.38;4.78;;;11.40;99.90;;;;;;4991724;28;20058;-57
2023/10/13 03:10:10;;;;;;;14.68;5.05;;;11.40;99.90;;;;;;4991847;28;20046;-59
2023/10/13 03:12:38;;;;;;;10.77;3.47;;;11.40;99.90;;;;;;4988133;28;20030;-58
2023/10/13 03:17:43;;;;;;;15.98;5.18;;;11.30;99.90;;;;;;4993022;28;20070;-58
2023/10/13 03:20:13;;;;;;;10.93;4.70;;;11.30;99.90;;;;;;4990186;28;20547;-58
2023/10/13 03:22:44;;;;;;;9.80;4.30;;;11.30;99.90;;;;;;4992514;28;20391;-59
2023/10/13 03:25:42;;;;;;;11.80;4.50;;;11.30;99.90;;;;;;4987427;28;20483;-58
2023/10/13 03:28:13;;;;;;;12.10;4.88;;;11.30;99.90;;;;;;4983055;28;20453;-58
2023/10/13 03:30:44;;;;;;;10.63;5.35;;;11.20;99.90;;;;;;4990445;28;20034;-59
2023/10/13 03:33:14;;;;;;;11.75;5.50;;;11.20;99.90;;;;;;4988382;28;20053;-57
2023/10/13 03:35:42;;;;;;;9.88;5.03;;;11.20;99.90;;;;;;4978311;28;20054;-58
2023/10/13 03:38:19;;;;;;;11.93;4.38;;;11.20;99.90;;;;;;4985544;28;20427;-58
2023/10/13 03:40:56;;;;;;;11.98;4.00;;;11.20;99.90;;;;;;4990218;28;20513;-58
2023/10/13 03:43:23;;;;;;;12.97;4.07;;;11.20;99.90;;;;;;4987536;28;20051;-58
2023/10/13 03:46:00;;;;;;;7.13;3.70;;;11.30;99.90;;;;;;4983827;28;20052;-59
2023/10/13 03:51:14;;;;;;;;;;;11.30;99.90;;;;;;4988635;28;20068;-58
2023/10/13 03:53:54;;;;;;;11.35;4.28;;;11.30;99.90;;;;;;4982525;28;19921;-59
2023/10/13 03:56:26;;;;;;;8.90;3.75;;;11.40;99.90;;;;;;4984210;28;20046;-59
2023/10/13 03:59:04;;;;;;;11.05;4.70;;;11.30;99.90;;;;;;4989231;28;20073;-59
2023/10/13 04:04:14;;;;;;;15.57;6.13;;;11.30;99.90;;;;;;4991773;28;20055;-58
2023/10/13 04:17:40;;;;;;;8.25;3.65;;;11.60;99.90;;;;;;4986282;28;20050;-58
2023/10/13 04:28:37;;;;;;;11.45;3.95;;;11.70;99.90;;;;;;4994729;28;20042;-59
2023/10/13 04:31:23;;;;;;;8.23;3.97;;;11.80;99.90;;;;;;4992871;28;20058;-57
2023/10/13 04:33:52;;;;;;;9.68;4.03;;;11.80;99.90;;;;;;4995129;28;20104;-57
2023/10/13 04:36:36;;;;;;;16.15;4.55;;;11.80;99.90;;;;;;4987864;28;20109;-56
2023/10/13 04:49:28;;;;;;;14.65;5.82;;;11.90;99.90;;;;;;4995629;28;20281;-58
2023/10/13 04:52:12;;;;;;;14.10;4.53;;;11.90;99.90;;;;;;4987090;28;20121;-58
2023/10/13 04:54:53;;;;;;;13.00;4.72;;;11.90;99.90;;;;;;4980401;28;20061;-59
2023/10/13 05:44:33;;;;;;;11.85;5.25;;;11.20;99.90;;;;;;4986680;28;20042;-58
2023/10/13 05:51:57;;;;;;;14.43;5.30;;;11.70;99.90;;;;;;4992940;28;20114;-58
2023/10/13 06:30:33;;;;;;;14.68;5.20;;;11.50;99.90;;;;;;4985023;28;20495;-58
2023/10/13 06:33:01;;;;;;;18.02;6.13;;;11.50;99.90;;;;;;4992340;28;20729;-58
2023/10/13 06:35:28;;;;;;;16.15;7.07;;;11.60;99.90;;;;;;4990003;28;20040;-57
2023/10/13 06:38:00;;;;;;;16.05;5.72;;;11.60;99.90;;;;;;4993593;28;20049;-57
2023/10/13 06:40:33;;;;;;;11.63;4.80;;;11.60;99.90;;;;;;4984015;28;20050;-58
2023/10/13 06:43:12;;;;;;;18.13;5.75;;;11.60;99.90;;;;;;4993364;28;20558;-56
2023/10/13 06:45:40;;;;;;;15.63;5.65;;;11.60;99.90;;;;;;4990273;28;20042;-58
2023/10/13 06:48:12;;;;;;;15.18;5.43;;;11.70;99.90;;;;;;4992554;28;20050;-58
2023/10/13 06:50:41;;;;;;;11.82;5.18;;;11.80;99.90;;;;;;4985372;28;20659;-58
2023/10/13 06:53:12;;;;;;;12.02;5.97;;;11.90;99.90;;;;;;4985464;28;20051;-58
2023/10/13 06:55:39;;;;;;;16.20;5.80;;;12.00;99.90;;;;;;4993434;28;20088;-58
2023/10/13 06:58:07;;;;;;;14.10;5.43;;;12.10;99.90;;;;;;4993010;28;20048;-58
2023/10/13 07:00:37;;;;;;;11.98;5.57;;;12.20;99.90;;;;;;4989884;28;20130;-57
2023/10/13 07:03:26;;;;;;;12.90;5.28;;;12.30;99.90;;;;;;4985739;28;20046;-58
2023/10/13 07:05:53;;;;;;;15.10;6.03;;;12.40;99.90;;;;;;4988137;28;20113;-59
2023/10/13 07:08:20;;;;;;;11.75;5.47;;;12.50;99.90;;;;;;4985228;28;20042;-58
2023/10/13 07:11:17;;;;;;;16.05;6.25;;;12.50;99.90;;;;;;4991946;28;20039;-58
2023/10/13 07:13:51;;;;;;;17.08;5.30;;;12.60;99.90;;;;;;4984863;28;20396;-58
2023/10/13 07:16:18;;;;;;;11.48;4.93;;;12.70;99.90;;;;;;4983526;28;20047;-57
2023/10/13 07:18:59;;;;;;;14.20;5.78;;;12.80;99.90;;;;;;4992908;28;20046;-59
2023/10/13 07:21:31;;;;;;;13.32;6.03;;;12.90;99.90;;;;;;4992644;28;20057;-58
2023/10/13 07:24:08;;;;;;;11.68;5.43;;;12.90;99.90;;;;;;4986204;28;20856;-58
2023/10/13 07:26:42;;;;;;;14.70;6.13;;;13.00;99.90;;;;;;4973444;28;20077;-58
2023/10/13 07:29:10;;;;;;;11.85;5.55;;;13.10;99.90;;;;;;4982608;28;20064;-59
2023/10/13 07:31:44;;;;;;;14.25;5.63;;;13.20;99.90;;;;;;4983921;28;20046;-59
2023/10/13 07:34:26;;;;;;;12.05;5.15;;;13.30;99.90;;;;;;4983643;28;20129;-57
2023/10/13 07:36:59;;;;;;;17.23;5.78;;;13.40;99.90;;;;;;4990814;28;20046;-57
2023/10/13 07:39:33;;;;;;;19.55;5.68;;;13.50;99.90;;;;;;4992335;28;20051;-58
2023/10/13 07:42:08;;;;;;;12.93;5.70;;;13.60;99.90;;;;;;4992012;28;20093;-58
2023/10/13 07:44:36;;;;;;;13.88;5.15;;;13.70;99.90;;;;;;4989308;28;20045;-58
2023/10/13 07:47:04;;;;;;;11.65;5.82;;;13.70;99.90;;;;;;4979240;28;20053;-54
2023/10/13 07:49:37;;;;;;;16.40;5.53;;;13.90;99.90;;;;;;4992305;28;20093;-58
2023/10/13 07:52:22;;;;;;;12.30;5.60;;;14.00;99.90;;;;;;4983936;28;20054;-58
2023/10/13 07:55:11;;;;;;;14.48;4.75;;;14.10;99.90;;;;;;4987736;28;20125;-57
2023/10/13 07:57:53;;;;;;;14.52;5.22;;;14.30;99.90;;;;;;4984253;28;20074;-57
2023/10/13 08:08:38;;;;;;;16.95;6.13;;;14.50;99.90;;;;;;4992133;28;20054;-58
2023/10/13 08:11:14;;;;;;;14.75;5.75;;;14.70;99.90;;;;;;4984069;28;20039;-58
2023/10/13 08:13:47;;;;;;;11.38;5.65;;;14.80;99.90;;;;;;4980177;28;20051;-58
2023/10/13 08:16:46;;;;;;;11.45;4.57;;;14.70;99.90;;;;;;4982677;28;20053;-56
2023/10/13 08:19:17;;;;;;;9.70;4.97;;;14.80;99.90;;;;;;4991180;28;20046;-59
2023/10/13 08:21:51;;;;;;;13.65;5.07;;;15.00;99.90;;;;;;4991713;28;20049;-58
2023/10/13 08:37:47;;;;;;;9.90;4.90;;;15.70;99.90;;;;;;5004263;28;20088;-56
2023/10/13 08:40:42;;;;;;;11.73;4.25;;;15.90;99.90;;;;;;4984025;28;20419;-58
2023/10/13 08:53:33;;;;;;;12.30;4.65;;;16.40;99.90;;;;;;4988420;28;20049;-58
2023/10/13 09:04:21;;;;;;;9.70;3.83;;;16.80;99.90;;;;;;4989509;28;20356;-57
2023/10/13 09:09:34;;;;;;;12.40;4.18;;;17.10;99.90;;;;;;4991233;28;20125;-57
2023/10/13 09:12:11;;;;;;;8.90;4.10;;;17.10;99.90;;;;;;4995230;28;20101;-58
2023/10/13 09:14:43;;;;;;;12.37;3.93;;;17.30;99.90;;;;;;4980654;28;20047;-58
2023/10/13 09:19:57;;;;;;;13.73;5.45;;;17.60;99.90;;;;;;4978654;28;20046;-55
2023/10/13 09:22:37;;;;;;;9.45;4.07;;;17.70;99.90;;;;;;4985819;28;20054;-59
2023/10/13 09:25:05;;;;;;;10.98;3.85;;;17.90;99.90;;;;;;4988347;28;20116;-58
2023/10/13 09:27:33;;;;;;;;;;;18.10;99.90;;;;;;4993225;28;20054;-57
2023/10/13 09:30:18;;;;;;;12.27;4.00;;;18.10;99.90;;;;;;4994521;28;19932;-58
2023/10/13 09:32:50;;;;;;;9.60;3.95;;;18.20;99.90;;;;;;4991534;28;20047;-57
2023/10/13 09:35:18;;;;;;;11.00;4.40;;;18.40;99.90;;;;;;4982353;28;20046;-59
2023/10/13 09:37:46;;;;;;;13.50;3.90;;;18.50;99.90;;;;;;4994495;28;20049;-58
2023/10/13 09:43:17;;;;;;;10.50;4.18;;;18.80;99.90;;;;;;4980742;28;20066;-58
2023/10/13 09:46:02;;;;;;;7.80;3.72;;;18.90;99.90;;;;;;4985231;28;20109;-59
2023/10/13 09:48:35;;;;;;;10.88;3.58;;;19.00;99.90;;;;;;4986147;28;20046;-59
2023/10/13 09:51:09;;;;;;;9.73;3.65;;;19.20;99.90;;;;;;4990969;28;20100;-59
2023/10/13 09:53:39;;;;;;;10.80;3.70;;;19.20;99.90;;;;;;4991708;28;20050;-58
2023/10/13 09:56:32;;;;;;;8.65;3.45;;;19.10;99.90;;;;;;4982908;28;20102;-58
2023/10/13 09:59:12;;;;;;;7.28;3.80;;;19.20;99.90;;;;;;4985329;28;20046;-57
2023/10/13 10:01:59;;;;;;;7.65;3.85;;;19.30;99.90;;;;;;4993910;28;20484;-57
2023/10/13 10:04:26;;;;;;;10.15;3.95;;;19.40;99.90;;;;;;4992027;28;20499;-58
2023/10/13 10:06:57;;;;;;;11.15;3.72;;;19.40;99.90;;;;;;4983079;28;20054;-58
2023/10/13 10:09:34;;;;;;;8.55;3.90;;;19.60;99.90;;;;;;4991129;28;20049;-58
2023/10/13 10:12:11;;;;;;;;;;;19.80;99.90;;;;;;4994268;28;20046;-59
2023/10/13 10:15:28;;;;;;;7.57;3.95;;;19.90;99.90;;;;;;4992378;28;20289;-58
2023/10/13 10:17:55;;;;;;;10.05;3.83;;;19.90;99.90;;;;;;4986227;28;20108;-58
2023/10/13 10:20:43;;;;;;;8.02;3.28;;;19.90;99.90;;;;;;4994147;28;20089;-59
2023/10/13 10:23:26;;;;;;;7.93;3.55;;;19.90;99.90;;;;;;4993119;28;20066;-58
2023/10/13 10:26:04;;;;;;;8.75;3.15;;;20.00;99.90;;;;;;4986881;28;20062;-59
2023/10/13 10:28:44;;;;;;;;;;;20.00;99.90;;;;;;4989626;28;20054;-58
2023/10/13 10:31:17;;;;;;;8.35;3.50;;;20.10;99.90;;;;;;4993780;28;19921;-59
2023/10/13 10:33:45;;;;;;;10.20;3.42;;;20.20;99.90;;;;;;4991292;28;20125;-58
2023/10/13 10:36:15;;;;;;;7.25;3.28;;;20.50;99.90;;;;;;4975839;28;20047;-58
2023/10/13 10:38:59;;;;;;;9.45;3.53;;;20.60;99.90;;;;;;4991700;28;20488;-59
2023/10/13 10:41:52;;;;;;;10.00;3.58;;;20.60;99.90;;;;;;4991479;28;20407;-59
2023/10/13 10:44:34;;;;;;;7.43;3.40;;;20.60;99.90;;;;;;4992765;28;20054;-59
2023/10/13 10:47:32;;;;;;;10.45;3.95;;;20.80;99.90;;;;;;4985462;28;20053;-60
2023/10/13 10:50:07;;;;;;;7.00;3.40;;;21.00;99.90;;;;;;4993347;28;20089;-57
2023/10/13 10:52:39;;;;;;;12.13;3.70;;;21.00;99.80;;;;;;4990345;28;20513;-58
2023/10/13 10:55:13;;;;;;;8.45;4.38;;;21.00;98.60;;;;;;4986470;28;20070;-59
2023/10/13 10:57:43;;;;;;;11.45;4.30;;;20.90;99.30;;;;;;4975045;28;20392;-59
2023/10/13 11:00:20;;;;;;;10.88;3.22;;;21.00;99.50;;;;;;4986598;28;20096;-59
2023/10/13 11:02:57;;;;;;;8.07;2.92;;;21.20;98.80;;;;;;4991285;28;20050;-57
2023/10/13 11:05:32;;;;;;;8.17;3.60;;;21.30;98.30;;;;;;4989414;28;20113;-59
2023/10/13 11:07:59;;;;;;;9.32;3.60;;;21.40;98.00;;;;;;4993165;28;20046;-59
2023/10/13 11:10:31;;;;;;;5.45;2.90;;;21.50;97.70;;;;;;4992767;28;20133;-59
2023/10/13 11:13:13;;;;;;;8.50;2.80;;;21.50;98.00;;;;;;4984587;28;20101;-60
2023/10/13 11:15:46;;;;;;;9.95;3.17;;;21.60;97.20;;;;;;4986414;28;20052;-59
2023/10/13 11:18:20;;;;;;;9.02;3.42;;;21.70;96.70;;;;;;4992678;28;20057;-57
2023/10/13 11:20:54;;;;;;;6.05;3.35;;;21.70;96.00;;;;;;4992319;28;20061;-58
2023/10/13 11:23:25;;;;;;;9.60;3.65;;;21.70;95.90;;;;;;4978613;28;20097;-58
2023/10/13 11:25:59;;;;;;;8.73;4.30;;;21.70;95.50;;;;;;4992077;28;20077;-58
2023/10/13 11:28:31;;;;;;;12.05;3.70;;;21.80;97.50;;;;;;4992172;28;20078;-57
2023/10/13 11:30:59;;;;;;;5.57;3.17;;;21.90;98.40;;;;;;4984460;28;20073;-58
2023/10/13 11:33:31;;;;;;;5.88;3.35;;;21.90;98.10;;;;;;4982711;28;20064;-58
2023/10/13 11:36:02;;;;;;;13.05;3.80;;;21.80;98.60;;;;;;4992712;28;20077;-58
2023/10/13 11:38:45;;;;;;;8.25;4.28;;;21.80;98.00;;;;;;4990800;28;20046;-59
2023/10/13 11:41:12;;;;;;;9.35;3.33;;;21.80;98.00;;;;;;4986467;28;20413;-57
2023/10/13 11:49:49;;;;;;;8.57;3.70;;;21.90;98.20;;;;;;4985304;28;20047;-59
2023/10/13 11:52:08;;;;;;;8.82;3.45;;;22.00;96.80;;;;;;4981666;28;20063;-59
2023/10/13 11:54:38;;;;;;;6.93;3.08;;;22.00;98.10;;;;;;4989244;28;20133;-59
2023/10/13 11:57:07;;;;;;;8.52;3.13;;;22.10;97.50;;;;;;4984758;28;20046;-58
2023/10/13 11:59:40;;;;;;;5.68;3.05;;;22.10;97.80;;;;;;4992264;28;20042;-60
2023/10/13 12:07:45;;;;;;;7.78;3.40;;;22.10;97.80;;;;;;4986473;28;20049;-59
2023/10/13 12:13:10;;;;;;;6.07;3.20;;;22.20;97.80;;;;;;4972243;28;20389;-60
2023/10/13 12:15:48;;;;;;;7.05;3.25;;;22.40;97.50;;;;;;4992095;28;20043;-60
2023/10/13 12:18:15;;;;;;;7.28;3.00;;;22.20;96.60;;;;;;4992043;28;20047;-60
2023/10/13 12:20:45;;;;;;;6.13;3.58;;;22.50;96.30;;;;;;4988728;28;20043;-59
2023/10/13 12:23:17;;;;;;;11.90;3.42;;;22.60;95.30;;;;;;4992218;28;20049;-59
2023/10/13 12:28:26;;;;;;;6.13;2.97;;;22.80;94.70;;;;;;4987473;28;20074;-57
2023/10/13 12:30:54;;;;;;;7.95;3.30;;;22.90;95.20;;;;;;4991624;28;20101;-59
2023/10/13 12:33:24;;;;;;;9.80;3.00;;;22.90;93.80;;;;;;4991328;28;20042;-59
2023/10/13 12:52:20;;;;;;;11.30;3.58;;;22.90;96.00;;;;;;4995457;28;20056;-59
2023/10/13 12:54:58;;;;;;;14.30;3.67;;;22.80;96.00;;;;;;4995352;28;20053;-58
2023/10/13 12:57:26;;;;;;;10.55;3.22;;;22.90;96.00;;;;;;4995503;28;20038;-59
2023/10/13 12:59:53;;;;;;;10.32;3.45;;;22.80;96.00;;;;;;4988172;28;20049;-59
2023/10/13 13:02:20;;;;;;;6.05;3.58;;;22.70;95.60;;;;;;4985252;28;20046;-59
2023/10/13 13:05:01;;;;;;;6.40;2.97;;;22.70;95.60;;;;;;4995404;28;20038;-59
2023/10/13 13:07:30;;;;;;;6.93;3.63;;;22.70;95.70;;;;;;4990447;28;20042;-57
2023/10/13 13:10:00;;;;;;;10.35;3.03;;;22.70;95.50;;;;;;4994789;28;20109;-60
2023/10/13 13:12:30;;;;;;;7.90;3.10;;;22.70;96.00;;;;;;4989027;28;20058;-58
2023/10/13 13:14:57;;;;;;;6.55;3.00;;;22.70;95.30;;;;;;4987036;28;20122;-59
2023/10/13 13:17:24;;;;;;;7.70;3.33;;;22.70;95.00;;;;;;4984631;28;20043;-57
2023/10/13 13:19:51;;;;;;;;;;;22.80;95.00;;;;;;4993474;28;20097;-59
2023/10/13 13:22:18;;;;;;;10.93;3.50;;;22.90;94.60;;;;;;4991762;28;19926;-60
2023/10/13 13:24:45;;;;;;;8.43;3.15;;;22.90;94.70;;;;;;4994551;28;20046;-59
2023/10/13 13:27:13;;;;;;;7.50;2.70;;;23.00;94.30;;;;;;4975012;28;20070;-60
2023/10/13 13:29:41;;;;;;;5.63;3.03;;;23.00;93.90;;;;;;4987460;28;20082;-59
2023/10/13 13:32:23;;;;;;;9.80;3.13;;;23.00;94.30;;;;;;4994018;28;20042;-59
2023/10/13 13:35:04;;;;;;;6.88;3.00;;;22.90;94.20;;;;;;4990062;28;20049;-59
2023/10/13 13:37:31;;;;;;;8.77;3.38;;;23.00;94.30;;;;;;4990783;28;20539;-59
2023/10/13 13:40:14;;;;;;;8.45;3.40;;;23.10;93.90;;;;;;4992441;28;20109;-60
2023/10/13 13:42:43;;;;;;;6.15;2.80;;;23.10;93.70;;;;;;4990953;28;20077;-58
2023/10/13 13:45:21;;;;;;;9.93;3.20;;;23.10;94.20;;;;;;4990120;28;20039;-60
2023/10/13 13:47:55;;;;;;;5.75;3.03;;;23.10;94.60;;;;;;4990065;28;20455;-59
2023/10/13 13:50:26;;;;;;;6.95;3.33;;;23.10;94.70;;;;;;4988135;28;20109;-58
2023/10/13 13:52:57;;;;;;;9.45;3.40;;;23.10;94.80;;;;;;4992902;28;20047;-60
2023/10/13 13:55:28;;;;;;;8.35;3.03;;;23.10;95.10;;;;;;4994214;28;20065;-60
2023/10/13 13:57:56;;;;;;;5.63;2.67;;;23.20;95.10;;;;;;4993344;28;20046;-58
2023/10/13 14:00:37;;;;;;;5.20;2.92;;;23.20;95.20;;;;;;4994219;28;20073;-59
2023/10/13 14:03:06;;;;;;;8.95;3.55;;;23.20;95.40;;;;;;4981278;28;20500;-59
2023/10/13 14:05:33;;;;;;;7.57;3.55;;;23.10;95.20;;;;;;4984835;28;20059;-59
2023/10/13 14:08:00;;;;;;;6.50;3.05;;;23.10;95.60;;;;;;4986625;28;20050;-58
2023/10/13 14:10:33;;;;;;;;;;;23.10;95.70;;;;;;4993810;28;20428;-59
2023/10/13 14:13:12;;;;;;;7.38;3.00;;;23.10;95.60;;;;;;4988238;28;20356;-60
2023/10/13 14:15:43;;;;;;;9.65;3.70;;;23.00;95.70;;;;;;4991956;28;20050;-59
2023/10/13 14:18:16;;;;;;;8.18;3.13;;;23.00;95.80;;;;;;4993709;28;20053;-59
2023/10/13 14:20:44;;;;;;;10.02;3.40;;;23.00;96.20;;;;;;4984503;28;20042;-59
2023/10/13 14:23:14;;;;;;;9.15;3.55;;;23.00;96.30;;;;;;4981693;28;20042;-59
2023/10/13 14:25:45;;;;;;;9.75;3.38;;;22.90;96.20;;;;;;4986369;28;20114;-59
2023/10/13 14:28:17;;;;;;;9.48;3.17;;;22.90;96.30;;;;;;4974250;28;20034;-58
2023/10/13 14:30:44;;;;;;;7.05;3.15;;;22.90;96.10;;;;;;4989573;28;20039;-59
2023/10/13 14:33:11;;;;;;;10.40;3.70;;;22.90;96.00;;;;;;4985721;28;20046;-59
2023/10/13 14:35:38;;;;;;;8.50;3.10;;;22.90;97.30;;;;;;4991956;28;20046;-60
2023/10/13 14:38:05;;;;;;;6.15;3.25;;;22.90;97.90;;;;;;4990525;28;20042;-59
2023/10/13 14:40:32;;;;;;;10.13;3.30;;;22.80;98.20;;;;;;4982496;28;20464;-57
2023/10/13 14:42:59;;;;;;;9.55;3.55;;;22.70;99.20;;;;;;4982695;28;20558;-58
2023/10/13 14:45:25;;;;;;;7.97;4.00;;;22.50;97.90;;;;;;4982356;28;20046;-58
2023/10/13 14:47:52;;;;;;;11.23;3.35;;;22.40;98.10;;;;;;4988563;28;20038;-57
2023/10/13 14:50:22;;;;;;;;;;;22.30;98.50;;;;;;4993453;28;20534;-58
2023/10/13 14:52:50;;;;;;;8.43;3.35;;;22.20;98.30;;;;;;4987762;28;19931;-58
2023/10/13 14:55:21;;;;;;;7.68;3.20;;;22.00;98.40;;;;;;4992327;28;20038;-59
2023/10/13 14:57:49;;;;;;;9.52;3.00;;;21.80;98.20;;;;;;4990626;28;20038;-59
2023/10/13 15:00:24;;;;;;;6.35;2.90;;;21.70;98.00;;;;;;4992941;28;20038;-58
2023/10/13 15:02:52;;;;;;;6.28;3.38;;;21.60;98.30;;;;;;4990894;28;20125;-58
2023/10/13 15:05:20;;;;;;;8.10;2.58;;;21.40;98.20;;;;;;4993103;28;20046;-59
2023/10/13 15:07:47;;;;;;;;;;;21.40;98.20;;;;;;4990678;28;20038;-59
2023/10/13 15:10:15;;;;;;;6.55;2.90;;;21.20;98.50;;;;;;4992571;28;19937;-59
2023/10/13 15:12:45;;;;;;;7.97;2.85;;;21.10;99.20;;;;;;4992704;28;20407;-58
2023/10/13 15:15:19;;;;;;;8.77;3.42;;;21.10;99.10;;;;;;4984695;28;20085;-59
2023/10/13 15:17:47;;;;;;;8.13;3.15;;;21.00;99.80;;;;;;4991266;28;20506;-58
2023/10/13 15:20:16;;;;;;;6.22;2.92;;;21.00;99.50;;;;;;4991754;28;20042;-59
2023/10/13 15:22:44;;;;;;;7.25;4.47;;;21.00;99.60;;;;;;4986046;28;20038;-60
2023/10/13 15:25:29;;;;;;;6.47;2.80;;;21.00;99.70;;;;;;4991449;28;20043;-57
2023/10/13 15:28:02;;;;;;;11.45;3.17;;;20.90;99.90;;;;;;4976148;28;20408;-59
2023/10/13 15:30:45;;;;;;;6.50;3.03;;;20.80;99.90;;;;;;4986208;28;20054;-58
2023/10/13 15:33:12;;;;;;;5.07;2.70;;;20.70;99.90;;;;;;4982336;28;20503;-57
2023/10/13 15:35:45;;;;;;;8.05;3.10;;;20.60;99.90;;;;;;4979084;28;20037;-58
2023/10/13 15:38:12;;;;;;;7.57;2.35;;;20.40;99.90;;;;;;4992453;28;20538;-59
2023/10/13 15:40:45;;;;;;;8.70;2.80;;;20.30;99.90;;;;;;4988987;28;20483;-59
2023/10/13 15:43:12;;;;;;;8.85;2.78;;;20.20;99.90;;;;;;4991575;28;20508;-58
2023/10/13 15:45:39;;;;;;;11.68;2.95;;;20.20;99.90;;;;;;4992474;28;20081;-58
2023/10/13 15:48:06;;;;;;;;;;;20.10;99.90;;;;;;4986166;28;20156;-58
2023/10/13 15:50:39;;;;;;;7.13;2.20;;;20.00;99.90;;;;;;4985211;28;19921;-59
2023/10/13 15:53:12;;;;;;;7.22;2.45;;;19.90;99.90;;;;;;4990641;28;20443;-58
2023/10/13 15:55:39;;;;;;;5.60;2.50;;;19.70;99.90;;;;;;4986440;28;20049;-59
2023/10/13 15:58:09;;;;;;;5.97;2.70;;;19.40;99.90;;;;;;4991386;28;20043;-59
2023/10/13 16:00:37;;;;;;;8.73;3.45;;;19.20;99.90;;;;;;4992256;28;20046;-56
2023/10/13 16:03:11;;;;;;;12.82;4.10;;;19.00;99.90;;;;;;4987288;28;20038;-58
2023/10/13 16:05:42;;;;;;;6.75;3.60;;;19.00;99.90;;;;;;4989853;28;20563;-58
2023/10/13 16:08:12;;;;;;;7.28;3.35;;;19.00;99.90;;;;;;4992163;28;20074;-58
2023/10/13 16:10:41;;;;;;;6.80;3.25;;;18.90;99.90;;;;;;4990333;28;20070;-59
2023/10/13 16:13:15;;;;;;;7.40;2.60;;;18.90;99.90;;;;;;4984498;28;20046;-59
2023/10/13 16:15:43;;;;;;;7.70;3.45;;;18.90;99.90;;;;;;4990750;28;20046;-59
2023/10/13 16:18:10;;;;;;;;;;;18.80;99.90;;;;;;4991602;28;20396;-59
2023/10/13 16:20:38;;;;;;;7.10;2.97;;;18.60;99.90;;;;;;4990840;28;19925;-60
2023/10/13 16:23:08;;;;;;;8.35;3.20;;;18.50;99.90;;;;;;4994279;28;20100;-57
2023/10/13 16:25:36;;;;;;;8.13;3.13;;;18.30;99.90;;;;;;4993791;28;20407;-59
2023/10/13 16:28:03;;;;;;;6.90;2.90;;;18.30;99.90;;;;;;4995499;28;20056;-59
2023/10/13 16:30:30;;;;;;;;;;;18.20;99.90;;;;;;4994187;28;20038;-59
2023/10/13 16:32:57;;;;;;;9.18;2.95;;;18.20;99.90;;;;;;4991045;28;20355;-59
2023/10/13 16:35:24;;;;;;;7.50;3.03;;;18.00;99.90;;;;;;4985811;28;20058;-60
2023/10/13 16:37:51;;;;;;;8.15;3.47;;;17.90;99.90;;;;;;4987297;28;20038;-57
2023/10/13 16:40:19;;;;;;;9.35;3.30;;;17.90;99.90;;;;;;4987336;28;20049;-60
2023/10/13 16:42:52;;;;;;;7.32;3.10;;;17.80;99.90;;;;;;4994607;28;20113;-59
2023/10/13 16:45:22;;;;;;;9.65;3.63;;;17.70;99.90;;;;;;4993530;28;20034;-57